createdAt,value
2023-01-09T00:01:59.617Z,99052.75
2023-01-09T00:04:26.142Z,99059.13
2023-01-09T00:06:55.850Z,99049.53
2023-01-09T00:09:24.286Z,99056.06
2023-01-09T00:11:51.664Z,99051.16
2023-01-09T00:14:18.882Z,99054.63
2023-01-09T00:16:45.530Z,99047.53
2023-01-09T00:19:12.320Z,99045.75
2023-01-09T00:21:38.848Z,99054.47
2023-01-09T00:24:06.117Z,99058.69
2023-01-09T00:26:32.748Z,99056.53
2023-01-09T00:28:59.225Z,99062.56
2023-01-09T00:31:25.747Z,99054.44
2023-01-09T00:33:59.936Z,99051.94
2023-01-09T00:36:26.899Z,99074.75
2023-01-09T00:38:53.452Z,99054.56
2023-01-09T00:41:27.827Z,99071.13
2023-01-09T00:43:59.303Z,99063.34
2023-01-09T00:46:32.731Z,99059.88
2023-01-09T00:49:00.084Z,99061.53
2023-01-09T00:51:27.805Z,99056.28
2023-01-09T00:53:54.784Z,99057.78
2023-01-09T00:56:22.717Z,99052.00
2023-01-09T00:58:51.332Z,99059.78
2023-01-09T01:01:18.129Z,99057.28
2023-01-09T01:03:44.655Z,99060.91
2023-01-09T01:06:29.867Z,99071.16
2023-01-09T01:08:56.448Z,99066.06
2023-01-09T01:11:24.132Z,99074.72
2023-01-09T01:13:50.632Z,99076.84
2023-01-09T01:16:18.417Z,99070.38
2023-01-09T01:18:45.339Z,99075.53
2023-01-09T01:21:13.857Z,99086.94
2023-01-09T01:23:40.892Z,99074.34
2023-01-09T01:26:09.971Z,99080.72
2023-01-09T01:28:36.872Z,99079.59
2023-01-09T01:31:04.108Z,99068.16
2023-01-09T01:33:31.286Z,99077.56
2023-01-09T01:36:06.539Z,99081.50
2023-01-09T01:38:33.206Z,99078.69
2023-01-09T01:41:00.213Z,99087.13
2023-01-09T01:43:26.710Z,99097.59
2023-01-09T01:45:53.220Z,99092.97
2023-01-09T01:48:30.604Z,99098.63
2023-01-09T01:51:05.317Z,99099.00
2023-01-09T01:53:40.012Z,99100.56
2023-01-09T01:56:14.251Z,99113.44
2023-01-09T01:58:55.759Z,99117.38
2023-01-09T02:01:24.366Z,99119.81
2023-01-09T02:03:53.484Z,99112.78
2023-01-09T02:06:19.954Z,99114.13
2023-01-09T02:08:47.126Z,99113.63
2023-01-09T02:11:14.486Z,99123.69
2023-01-09T02:13:42.157Z,99123.59
2023-01-09T02:16:22.092Z,99115.56
2023-01-09T02:19:06.801Z,99128.78
2023-01-09T02:21:45.422Z,99119.28
2023-01-09T02:24:28.226Z,99124.97
2023-01-09T02:27:12.916Z,99127.00
2023-01-09T02:29:57.843Z,99129.34
2023-01-09T02:32:44.989Z,99127.16
2023-01-09T02:35:30.046Z,99127.72
2023-01-09T02:38:14.386Z,99139.97
2023-01-09T02:40:53.580Z,99129.41
2023-01-09T02:43:20.635Z,99129.41
2023-01-09T02:45:47.148Z,99127.56
2023-01-09T02:48:13.718Z,99132.72
2023-01-09T02:51:13.762Z,99112.66
2023-01-09T02:53:55.104Z,99125.03
2023-01-09T02:56:31.623Z,99114.56
2023-01-09T02:59:20.705Z,99119.22
2023-01-09T03:02:19.969Z,99125.03
2023-01-09T03:04:59.308Z,99137.91
2023-01-09T03:07:35.714Z,99128.28
2023-01-09T03:10:26.265Z,99134.78
2023-01-09T03:12:54.701Z,99131.13
2023-01-09T03:15:26.172Z,99132.81
2023-01-09T03:17:54.245Z,99135.44
2023-01-09T03:20:24.640Z,99144.19
2023-01-09T03:22:59.385Z,99143.75
2023-01-09T03:25:27.876Z,99152.31
2023-01-09T03:28:00.440Z,99151.63
2023-01-09T03:30:28.736Z,99167.59
2023-01-09T03:32:56.249Z,99168.81
2023-01-09T03:35:23.527Z,99176.22
2023-01-09T03:37:51.691Z,99182.81
2023-01-09T03:40:19.762Z,99182.31
2023-01-09T03:42:47.021Z,99189.91
2023-01-09T03:45:15.081Z,99198.09
2023-01-09T03:47:41.553Z,99189.91
2023-01-09T03:50:08.528Z,99192.56
2023-01-09T03:52:36.073Z,99189.38
2023-01-09T03:55:02.679Z,99197.00
2023-01-09T03:57:29.203Z,99183.81
2023-01-09T03:59:55.723Z,99193.81
2023-01-09T04:02:22.188Z,99191.88
2023-01-09T04:04:48.625Z,99200.09
2023-01-09T04:07:15.348Z,99196.81
2023-01-09T04:09:41.785Z,99203.19
2023-01-09T04:12:08.303Z,99201.47
2023-01-09T04:14:34.769Z,99204.44
2023-01-09T04:17:01.238Z,99207.75
2023-01-09T04:19:27.708Z,99211.22
2023-01-09T04:21:54.144Z,99200.63
2023-01-09T04:24:20.578Z,99212.78
2023-01-09T04:26:47.035Z,99220.03
2023-01-09T04:29:13.462Z,99207.03
2023-01-09T04:31:40.026Z,99213.41
2023-01-09T04:34:06.492Z,99207.53
2023-01-09T04:36:35.427Z,99218.75
2023-01-09T04:39:02.258Z,99219.56
2023-01-09T04:41:47.418Z,99222.34
2023-01-09T04:44:13.911Z,99224.09
2023-01-09T04:46:40.445Z,99220.22
2023-01-09T04:49:06.994Z,99216.50
2023-01-09T04:51:33.657Z,99217.28
2023-01-09T04:54:00.115Z,99219.34
2023-01-09T04:56:26.759Z,99230.81
2023-01-09T04:58:53.234Z,99226.50
2023-01-09T05:01:19.836Z,99235.69
2023-01-09T05:03:46.504Z,99229.34
2023-01-09T05:06:13.015Z,99245.19
2023-01-09T05:08:39.487Z,99247.22
2023-01-09T05:11:06.158Z,99247.06
2023-01-09T05:13:32.643Z,99252.34
2023-01-09T05:15:59.091Z,99253.44
2023-01-09T05:18:25.596Z,99259.06
2023-01-09T05:20:52.084Z,99259.38
2023-01-09T05:23:18.629Z,99259.03
2023-01-09T05:25:45.120Z,99266.91
2023-01-09T05:28:11.866Z,99266.13
2023-01-09T05:30:38.372Z,99267.69
2023-01-09T05:33:05.029Z,99260.94
2023-01-09T05:35:31.557Z,99262.84
2023-01-09T05:37:58.147Z,99270.34
2023-01-09T05:40:29.147Z,99264.47
2023-01-09T05:42:58.720Z,99268.75
2023-01-09T05:45:27.125Z,99263.22
2023-01-09T05:47:53.673Z,99265.56
2023-01-09T05:50:20.353Z,99264.69
2023-01-09T05:52:46.850Z,99267.09
2023-01-09T05:55:13.632Z,99258.81
2023-01-09T05:57:40.216Z,99256.00
2023-01-09T06:00:07.467Z,99254.84
2023-01-09T06:02:34.041Z,99262.94
2023-01-09T06:05:00.707Z,99263.91
2023-01-09T06:07:27.235Z,99257.31
2023-01-09T06:09:53.700Z,99264.13
2023-01-09T06:12:20.359Z,99250.56
2023-01-09T06:14:46.847Z,99249.00
2023-01-09T06:17:13.319Z,99258.25
2023-01-09T06:19:39.780Z,99255.34
2023-01-09T06:22:06.389Z,99267.22
2023-01-09T06:24:32.859Z,99257.28
2023-01-09T06:26:59.341Z,99266.72
2023-01-09T06:29:25.800Z,99264.22
2023-01-09T06:31:52.265Z,99267.34
2023-01-09T06:34:18.780Z,99281.34
2023-01-09T06:36:45.230Z,99264.44
2023-01-09T06:39:13.879Z,99271.69
2023-01-09T06:41:40.392Z,99269.41
2023-01-09T06:44:06.885Z,99274.94
2023-01-09T06:46:33.420Z,99274.94
2023-01-09T06:48:59.903Z,99274.84
2023-01-09T06:51:26.410Z,99276.50
2023-01-09T06:53:52.874Z,99269.41
2023-01-09T06:56:20.128Z,99280.44
2023-01-09T06:58:46.669Z,99275.34
2023-01-09T07:01:13.147Z,99268.25
2023-01-09T07:03:39.682Z,99271.50
2023-01-09T07:06:06.493Z,99277.25
2023-01-09T07:08:34.215Z,99277.41
2023-01-09T07:11:00.781Z,99276.59
2023-01-09T07:13:27.385Z,99268.63
2023-01-09T07:15:53.937Z,99272.56
2023-01-09T07:18:20.628Z,99270.19
2023-01-09T07:20:47.339Z,99274.56
2023-01-09T07:23:15.759Z,99280.38
2023-01-09T07:25:43.070Z,99281.63
2023-01-09T07:28:09.667Z,99277.25
2023-01-09T07:30:36.237Z,99270.84
2023-01-09T07:33:04.126Z,99280.56
2023-01-09T07:35:30.789Z,99278.94
2023-01-09T07:37:57.252Z,99269.16
2023-01-09T07:40:23.745Z,99274.75
2023-01-09T07:42:53.297Z,99273.03
2023-01-09T07:45:20.188Z,99276.91
2023-01-09T07:47:46.834Z,99282.44
2023-01-09T07:50:13.400Z,99276.44
2023-01-09T07:52:39.865Z,99272.03
2023-01-09T07:55:06.932Z,99286.66
2023-01-09T07:57:33.490Z,99290.91
2023-01-09T08:00:03.252Z,99284.94
2023-01-09T08:02:29.816Z,99276.53
2023-01-09T08:04:56.341Z,99278.25
2023-01-09T08:07:22.846Z,99291.22
2023-01-09T08:09:49.332Z,99286.41
2023-01-09T08:12:15.984Z,99295.91
2023-01-09T08:14:42.459Z,99293.47
2023-01-09T08:17:10.953Z,99294.69
2023-01-09T08:19:37.548Z,99297.91
2023-01-09T08:22:04.031Z,99301.44
2023-01-09T08:24:32.695Z,99308.22
2023-01-09T08:26:59.875Z,99298.16
2023-01-09T08:29:26.349Z,99294.09
2023-01-09T08:31:52.871Z,99297.91
2023-01-09T08:34:19.365Z,99298.31
2023-01-09T08:36:45.805Z,99304.31
2023-01-09T08:39:12.282Z,99302.53
2023-01-09T08:41:57.417Z,99304.78
2023-01-09T08:44:42.334Z,99302.47
2023-01-09T08:47:09.235Z,99296.63
2023-01-09T08:49:38.184Z,99292.69
2023-01-09T08:52:05.923Z,99310.91
2023-01-09T08:54:32.562Z,99301.25
2023-01-09T08:56:59.089Z,99312.34
2023-01-09T08:59:25.624Z,99317.44
2023-01-09T09:01:52.238Z,99319.88
2023-01-09T09:04:18.888Z,99318.22
2023-01-09T09:06:45.379Z,99326.41
2023-01-09T09:09:11.969Z,99314.25
2023-01-09T09:11:38.442Z,99328.44
2023-01-09T09:14:25.647Z,99334.06
2023-01-09T09:16:53.297Z,99327.00
2023-01-09T09:19:19.932Z,99335.63
2023-01-09T09:21:46.507Z,99339.91
2023-01-09T09:24:12.967Z,99336.41
2023-01-09T09:26:39.403Z,99343.56
2023-01-09T09:29:05.963Z,99332.09
2023-01-09T09:31:32.613Z,99332.53
2023-01-09T09:33:59.148Z,99345.09
2023-01-09T09:36:25.583Z,99336.78
2023-01-09T09:38:52.006Z,99339.97
2023-01-09T09:41:42.907Z,99351.34
2023-01-09T09:44:43.882Z,99367.53
2023-01-09T09:47:27.854Z,99357.16
2023-01-09T09:49:57.143Z,99355.81
2023-01-09T09:52:50.368Z,99370.38
2023-01-09T09:55:24.160Z,99367.94
2023-01-09T09:57:52.133Z,99367.09
2023-01-09T10:00:21.850Z,99377.78
2023-01-09T10:03:10.197Z,99375.47
2023-01-09T10:05:46.279Z,99386.75
2023-01-09T10:08:55.641Z,99394.50
2023-01-09T10:11:39.513Z,99385.19
2023-01-09T10:14:10.623Z,99387.53
2023-01-09T10:17:35.921Z,99382.75
2023-01-09T10:20:39.082Z,99383.59
2023-01-09T10:23:33.333Z,99380.22
2023-01-09T10:26:33.833Z,99375.25
2023-01-09T10:29:19.579Z,99367.41
2023-01-09T10:31:53.003Z,99364.59
2023-01-09T10:34:46.672Z,99374.56
2023-01-09T10:37:15.413Z,99375.41
2023-01-09T10:39:52.450Z,99369.75
2023-01-09T10:42:31.906Z,99378.44
2023-01-09T10:45:05.773Z,99386.69
2023-01-09T10:47:38.567Z,99401.34
2023-01-09T10:50:26.600Z,99386.13
2023-01-09T10:52:55.521Z,99396.34
2023-01-09T10:55:35.806Z,99400.66
2023-01-09T10:58:11.244Z,99411.53
2023-01-09T11:00:39.539Z,99398.91
2023-01-09T11:03:10.486Z,99394.72
2023-01-09T11:05:36.963Z,99395.00
2023-01-09T11:08:09.161Z,99392.94
2023-01-09T11:10:54.202Z,99399.25
2023-01-09T11:13:20.808Z,99399.97
2023-01-09T11:15:58.825Z,99399.34
2023-01-09T11:18:26.102Z,99400.34
2023-01-09T11:20:53.091Z,99422.69
2023-01-09T11:23:37.872Z,99402.97
2023-01-09T11:26:04.538Z,99400.69
2023-01-09T11:28:31.062Z,99411.66
2023-01-09T11:31:02.619Z,99400.47
2023-01-09T11:33:37.279Z,99404.31
2023-01-09T11:36:11.007Z,99407.78
2023-01-09T11:38:57.405Z,99406.66
2023-01-09T11:41:28.384Z,99404.22
2023-01-09T11:43:58.602Z,99418.00
2023-01-09T11:46:31.329Z,99422.16
2023-01-09T11:48:59.352Z,99426.44
2023-01-09T11:51:31.603Z,99433.81
2023-01-09T11:54:38.138Z,99434.72
2023-01-09T11:57:04.533Z,99454.91
2023-01-09T11:59:31.543Z,99448.50
2023-01-09T12:01:58.032Z,99463.09
2023-01-09T12:04:33.476Z,99481.03
2023-01-09T12:07:38.326Z,99457.94
2023-01-09T12:10:07.480Z,99457.94
2023-01-09T12:13:01.788Z,99452.09
2023-01-09T12:15:51.544Z,99466.88
2023-01-09T12:18:51.981Z,99491.84
2023-01-09T12:21:29.131Z,99463.38
2023-01-09T12:24:26.325Z,99467.34
2023-01-09T12:26:55.806Z,99477.56
2023-01-09T12:29:44.080Z,99474.63
2023-01-09T12:32:46.887Z,99474.91
2023-01-09T12:35:19.469Z,99487.84
2023-01-09T12:37:48.868Z,99489.81
2023-01-09T12:40:15.382Z,99496.34
2023-01-09T12:42:47.867Z,99500.41
2023-01-09T12:45:51.993Z,99496.28
2023-01-09T12:48:30.500Z,99513.22
2023-01-09T12:51:29.954Z,99503.25
2023-01-09T12:54:17.731Z,99495.19
2023-01-09T12:57:00.780Z,99510.22
2023-01-09T12:59:49.353Z,99503.47
2023-01-09T13:02:27.627Z,99507.72
2023-01-09T13:05:15.856Z,99525.50
2023-01-09T13:07:48.179Z,99515.06
2023-01-09T13:10:20.487Z,99516.00
2023-01-09T13:12:49.319Z,99517.66
2023-01-09T13:15:34.372Z,99524.84
2023-01-09T13:18:16.398Z,99526.09
2023-01-09T13:20:49.356Z,99536.78
2023-01-09T13:23:26.523Z,99542.56
2023-01-09T13:25:57.694Z,99554.50
2023-01-09T13:28:31.454Z,99549.69
2023-01-09T13:31:15.975Z,99543.69
2023-01-09T13:33:50.211Z,99561.56
2023-01-09T13:36:29.226Z,99562.59
2023-01-09T13:38:58.088Z,99558.13
2023-01-09T13:41:45.796Z,99561.00
2023-01-09T13:44:18.291Z,99575.75
2023-01-09T13:46:55.093Z,99581.94
2023-01-09T13:49:36.532Z,99583.00
2023-01-09T13:52:26.005Z,99614.34
2023-01-09T13:54:55.599Z,99591.69
2023-01-09T13:57:36.593Z,99611.88
2023-01-09T14:00:11.980Z,99600.75
2023-01-09T14:02:38.429Z,99608.78
2023-01-09T14:05:11.807Z,99611.94
2023-01-09T14:07:49.131Z,99623.63
2023-01-09T14:10:24.649Z,99620.59
2023-01-09T14:12:54.265Z,99623.69
2023-01-09T14:15:41.490Z,99627.47
2023-01-09T14:18:14.690Z,99631.53
2023-01-09T14:20:56.769Z,99647.06
2023-01-09T14:23:51.082Z,99648.09
2023-01-09T14:26:42.930Z,99663.16
2023-01-09T14:29:31.205Z,99670.34
2023-01-09T14:32:38.822Z,99670.84
2023-01-09T14:35:08.215Z,99676.97
2023-01-09T14:37:37.949Z,99688.84
2023-01-09T14:40:15.749Z,99693.59
2023-01-09T14:42:44.509Z,99709.66
2023-01-09T14:45:26.226Z,99712.06
2023-01-09T14:48:02.476Z,99721.19
2023-01-09T14:50:34.170Z,99713.78
2023-01-09T14:53:06.480Z,99727.22
2023-01-09T14:55:51.147Z,99732.28
2023-01-09T14:58:17.511Z,99737.81
2023-01-09T15:00:56.247Z,99739.22
2023-01-09T15:03:25.606Z,99736.88
2023-01-09T15:05:52.841Z,99745.56
2023-01-09T15:08:23.935Z,99763.34
2023-01-09T15:10:53.542Z,99770.56
2023-01-09T15:13:28.203Z,99772.41
2023-01-09T15:15:54.961Z,99774.13
2023-01-09T15:18:25.829Z,99792.41
2023-01-09T15:20:57.578Z,99796.41
2023-01-09T15:23:30.212Z,99798.69
2023-01-09T15:26:12.059Z,99810.53
2023-01-09T15:28:43.692Z,99813.31
2023-01-09T15:31:19.337Z,99818.03
2023-01-09T15:33:47.600Z,99820.03
2023-01-09T15:36:24.635Z,99822.44
2023-01-09T15:38:52.673Z,99824.34
2023-01-09T15:41:44.669Z,99825.97
2023-01-09T15:44:21.486Z,99832.28
2023-01-09T15:46:50.098Z,99831.28
2023-01-09T15:49:18.448Z,99831.53
2023-01-09T15:51:47.147Z,99835.06
2023-01-09T15:54:16.073Z,99840.16
2023-01-09T15:56:45.336Z,99839.75
2023-01-09T15:59:28.844Z,99858.66
2023-01-09T16:02:24.118Z,99868.13
2023-01-09T16:04:52.787Z,99872.16
2023-01-09T16:07:20.958Z,99876.13
2023-01-09T16:09:52.469Z,99889.09
2023-01-09T16:12:27.371Z,99891.06
2023-01-09T16:15:01.296Z,99898.16
2023-01-09T16:17:29.942Z,99893.53
2023-01-09T16:20:13.769Z,99907.25
2023-01-09T16:22:55.574Z,99906.41
2023-01-09T16:25:28.383Z,99910.75
2023-01-09T16:28:21.902Z,99918.69
2023-01-09T16:30:56.165Z,99915.09
2023-01-09T16:33:25.754Z,99925.72
2023-01-09T16:35:53.015Z,99924.22
2023-01-09T16:38:20.450Z,99926.97
2023-01-09T16:41:26.130Z,99956.47
2023-01-09T16:43:52.774Z,99946.22
2023-01-09T16:46:21.359Z,99943.81
2023-01-09T16:48:48.612Z,99950.13
2023-01-09T16:51:18.049Z,99957.25
2023-01-09T16:53:44.889Z,99954.91
2023-01-09T16:56:30.100Z,99951.75
2023-01-09T16:58:56.975Z,99961.63
2023-01-09T17:01:23.826Z,99959.69
2023-01-09T17:03:50.698Z,99962.38
2023-01-09T17:06:32.257Z,99976.19
2023-01-09T17:08:59.033Z,99973.03
2023-01-09T17:11:33.843Z,99979.78
2023-01-09T17:14:01.486Z,99981.69
2023-01-09T17:16:29.066Z,99977.00
2023-01-09T17:18:56.165Z,99997.50
2023-01-09T17:21:25.097Z,99994.75
2023-01-09T17:24:09.792Z,99996.75
2023-01-09T17:26:57.220Z,100012.13
2023-01-09T17:29:24.049Z,100012.44
2023-01-09T17:31:50.605Z,100018.78
2023-01-09T17:34:17.191Z,100032.59
2023-01-09T17:36:43.817Z,100026.31
2023-01-09T17:39:17.241Z,100029.16
2023-01-09T17:41:44.074Z,100031.53
2023-01-09T17:44:11.817Z,100033.06
2023-01-09T17:46:43.281Z,100059.06
2023-01-09T17:49:18.179Z,100070.09
2023-01-09T17:51:44.789Z,100070.13
2023-01-09T17:54:12.060Z,100065.78
2023-01-09T17:56:42.493Z,100078.78
2023-01-09T17:59:12.791Z,100085.84
2023-01-09T18:01:41.778Z,100074.44
2023-01-09T18:04:08.665Z,100080.31
2023-01-09T18:06:36.618Z,100076.81
2023-01-09T18:09:04.793Z,100085.06
2023-01-09T18:11:31.306Z,100087.81
2023-01-09T18:13:58.021Z,100090.56
2023-01-09T18:16:27.266Z,100098.44
2023-01-09T18:18:57.494Z,100098.41
2023-01-09T18:21:26.215Z,100109.84
2023-01-09T18:23:53.463Z,100108.66
2023-01-09T18:26:21.828Z,100116.13
2023-01-09T18:28:55.447Z,100124.00
2023-01-09T18:31:24.324Z,100128.34
2023-01-09T18:33:52.280Z,100140.16
2023-01-09T18:36:30.493Z,100146.84
2023-01-09T18:39:02.641Z,100140.16
2023-01-09T18:41:30.362Z,100152.72
2023-01-09T18:44:00.986Z,100148.03
2023-01-09T18:46:31.863Z,100156.66
2023-01-09T18:49:00.720Z,100157.47
2023-01-09T18:51:28.443Z,100157.47
2023-01-09T18:53:55.771Z,100158.25
2023-01-09T18:56:23.311Z,100172.78
2023-01-09T18:58:50.228Z,100174.41
2023-01-09T19:01:17.041Z,100183.44
2023-01-09T19:03:43.809Z,100189.75
2023-01-09T19:06:10.648Z,100191.72
2023-01-09T19:08:37.789Z,100203.13
2023-01-09T19:11:04.859Z,100201.94
2023-01-09T19:13:33.398Z,100205.91
2023-01-09T19:16:00.834Z,100192.47
2023-01-09T19:18:28.501Z,100205.47
2023-01-09T19:20:55.590Z,100211.41
2023-01-09T19:23:24.704Z,100209.44
2023-01-09T19:25:52.747Z,100215.34
2023-01-09T19:28:20.570Z,100216.13
2023-01-09T19:30:47.522Z,100220.44
2023-01-09T19:33:14.194Z,100227.53
2023-01-09T19:35:40.761Z,100221.22
2023-01-09T19:38:07.383Z,100241.69
2023-01-09T19:40:33.879Z,100241.34
2023-01-09T19:43:00.437Z,100247.22
2023-01-09T19:45:26.955Z,100249.59
2023-01-09T19:47:53.503Z,100252.72
2023-01-09T19:50:20.063Z,100257.06
2023-01-09T19:52:46.540Z,100264.53
2023-01-09T19:55:14.244Z,100257.50
2023-01-09T19:57:42.852Z,100272.81
2023-01-09T20:00:14.255Z,100267.75
2023-01-09T20:02:41.772Z,100276.00
2023-01-09T20:05:09.674Z,100279.16
2023-01-09T20:07:36.374Z,100285.41
2023-01-09T20:10:03.770Z,100287.44
2023-01-09T20:12:31.804Z,100294.88
2023-01-09T20:14:58.244Z,100300.81
2023-01-09T20:17:24.761Z,100309.47
2023-01-09T20:19:51.238Z,100305.13
2023-01-09T20:22:17.737Z,100319.69
2023-01-09T20:24:44.197Z,100327.91
2023-01-09T20:27:10.924Z,100335.88
2023-01-09T20:29:37.379Z,100343.34
2023-01-09T20:32:06.190Z,100344.44
2023-01-09T20:34:32.720Z,100347.63
2023-01-09T20:36:59.289Z,100352.34
2023-01-09T20:39:25.721Z,100348.84
2023-01-09T20:41:52.215Z,100357.88
2023-01-09T20:44:18.789Z,100363.03
2023-01-09T20:46:49.344Z,100383.84
2023-01-09T20:49:18.197Z,100378.38
2023-01-09T20:51:50.726Z,100387.03
2023-01-09T20:54:18.834Z,100389.44
2023-01-09T20:56:45.248Z,100394.91
2023-01-09T20:59:17.527Z,100400.75
2023-01-09T21:01:44.024Z,100404.34
2023-01-09T21:04:10.604Z,100403.25
2023-01-09T21:06:37.232Z,100406.72
2023-01-09T21:09:05.300Z,100417.34
2023-01-09T21:11:31.900Z,100426.41
2023-01-09T21:13:58.456Z,100431.56
2023-01-09T21:16:25.545Z,100441.34
2023-01-09T21:18:53.778Z,100444.13
2023-01-09T21:21:27.296Z,100440.13
2023-01-09T21:23:56.574Z,100446.50
2023-01-09T21:26:27.421Z,100450.03
2023-01-09T21:28:55.412Z,100459.91
2023-01-09T21:31:33.107Z,100472.06
2023-01-09T21:34:04.893Z,100471.66
2023-01-09T21:36:32.247Z,100470.03
2023-01-09T21:38:59.847Z,100473.94
2023-01-09T21:41:45.641Z,100486.16
2023-01-09T21:44:32.037Z,100488.84
2023-01-09T21:47:02.879Z,100474.34
2023-01-09T21:49:34.688Z,100483.00
2023-01-09T21:52:03.988Z,100498.34
2023-01-09T21:54:30.744Z,100498.69
2023-01-09T21:56:57.304Z,100505.44
2023-01-09T21:59:23.787Z,100508.53
2023-01-09T22:01:50.949Z,100510.16
2023-01-09T22:04:20.633Z,100510.88
2023-01-09T22:06:47.249Z,100520.28
2023-01-09T22:09:14.592Z,100522.69
2023-01-09T22:11:43.218Z,100529.00
2023-01-09T22:14:14.666Z,100538.38
2023-01-09T22:16:42.494Z,100543.88
2023-01-09T22:19:09.481Z,100549.44
2023-01-09T22:21:35.998Z,100552.97
2023-01-09T22:24:02.744Z,100559.66
2023-01-09T22:26:29.731Z,100561.19
2023-01-09T22:28:57.069Z,100561.59
2023-01-09T22:31:25.746Z,100563.53
2023-01-09T22:33:53.697Z,100576.91
2023-01-09T22:36:20.612Z,100574.13
2023-01-09T22:38:47.548Z,100595.47
2023-01-09T22:41:14.485Z,100603.72
2023-01-09T22:43:41.052Z,100609.16
2023-01-09T22:46:11.372Z,100615.78
2023-01-09T22:48:39.298Z,100616.59
2023-01-09T22:51:08.607Z,100611.41
2023-01-09T22:53:35.254Z,100624.84
2023-01-09T22:56:05.157Z,100630.31
2023-01-09T22:58:32.156Z,100636.56
2023-01-09T23:00:58.908Z,100644.38
2023-01-09T23:03:25.724Z,100644.44
2023-01-09T23:06:09.960Z,100646.00
2023-01-09T23:08:36.930Z,100655.44
2023-01-09T23:11:06.604Z,100656.22
2023-01-09T23:13:33.204Z,100666.09
2023-01-09T23:15:59.775Z,100669.25
2023-01-09T23:18:26.192Z,100671.63
2023-01-09T23:20:57.059Z,100679.13
2023-01-09T23:23:25.094Z,100680.69
2023-01-09T23:25:54.085Z,100684.63
2023-01-09T23:28:21.574Z,100699.22
2023-01-09T23:30:48.514Z,100704.34
2023-01-09T23:33:16.666Z,100709.09
2023-01-09T23:35:44.432Z,100714.53
2023-01-09T23:38:11.659Z,100720.88
2023-01-09T23:40:39.480Z,100727.88
2023-01-09T23:43:08.899Z,100739.03
2023-01-09T23:45:40.334Z,100736.97
2023-01-09T23:48:09.136Z,100740.91
2023-01-09T23:50:36.112Z,100746.81
2023-01-09T23:53:03.618Z,100752.38
2023-01-09T23:55:30.620Z,100763.38
2023-01-09T23:57:57.233Z,100766.88
